Station: Lady Elliot Island  

  Atmospheric Gas Attenuation - ITU Rec 676-11   ----------------- dB/100km -----------------
Date Time Temp RH % AH g/m3 Dew Point Wind Direction Speed kph Gust kph Barometer mB Rainfall Since 9am 24GHz 47GHz 76GHz 122GHz 134GHz 241GHz
31/08 16:20 21.1 68 12.53 15 30 39 1026.2 0 27.5 30.6 52.3 137.7 141.3 489.4
31/08 16:10 21 66 12.09 14.4 28 37 1026.2 0 26.6 29.9 50.5 133.0 135.5 469.0
31/08 16:00 21.3 67 12.49 14.9 28 37 1026 0 27.4 30.4 52.0 136.9 140.4 486.2
31/08 15:50 21.4 68 12.75 15.3 30 37 1025.9 0 27.9 30.8 53.0 139.6 143.8 497.9
31/08 15:40 21.5 67 12.63 15.1 28 39 1025.9 0 27.7 30.6 52.4 138.1 141.9 491.6
31/08 15:30 21.8 64 12.28 14.7 26 35 1025.9 0 26.9 29.9 50.8 133.7 136.6 473.1
31/08 15:20 21.7 62 11.83 14.1 26 37 1026 0 26.0 29.2 49.0 129.0 130.8 452.7
31/08 15:10 21.9 67 12.93 15.5 26 33 1026 0 28.3 30.9 53.4 140.7 145.3 503.4
31/08 15:00 21.1 66 12.16 14.5 24 33 1026.1 0 26.7 29.9 50.8 133.6 136.3 471.7
31/08 14:50 21.5 65 12.26 14.6 28 35 1026.2 0 26.9 30.0 50.9 134.0 136.9 474.1
31/08 14:40 22.2 63 12.37 14.8 28 35 1026.1 0 27.1 29.9 50.9 134.0 137.2 475.0
31/08 14:30 22.1 64 12.49 15 26 33 1026.2 0 27.3 30.2 51.5 135.5 139.0 481.3
31/08 14:20 22 62 12.03 14.4 26 33 1026.2 0 26.4 29.4 49.7 130.7 133.0 460.3
31/08 14:10 21.5 67 12.63 15.1 24 32 1026.3 0 27.7 30.6 52.5 138.1 142.0 491.7
31/08 14:00 21 65 11.91 14.2 24 32 1026.4 0 26.2 29.6 49.8 131.1 133.1 460.6
31/08 13:50 20.9 66 12.02 14.3 28 37 1026.4 0 26.4 29.8 50.3 132.4 134.8 466.4
31/08 13:40 20.9 70 12.75 15.2 32 41 1026.6 0 28.0 31.0 53.4 140.6 144.8 501.4
31/08 13:30 20.6 71 12.71 15.2 32 41 1026.7 0 27.9 31.1 53.4 140.7 144.8 501.5
31/08 13:20 21.1 72 13.26 15.9 28 37 1026.7 0 29.0 31.8 55.4 146.0 151.5 525.0
31/08 13:10 21.3 68 12.67 15.2 22 35 1026.7 0 27.8 30.7 52.8 139.0 142.9 495.0
31/08 13:00 20.5 74 13.17 15.7 30 39 1026.8 0 28.9 31.9 55.5 146.1 151.5 524.7
31/08 12:50 20.8 73 13.22 15.8 22 30 1026.8 0 29.0 31.9 55.5 146.1 151.6 525.1
31/08 12:40 20.9 70 12.75 15.2 20 33 1026.9 0 28.0 31.0 53.4 140.6 144.8 501.5
31/08 12:30 21.7 68 12.97 15.5 17 22 1027 0 28.4 31.1 53.8 141.7 146.4 507.0
31/08 12:20 21.3 67 12.49 14.9 22 30 1027.1 0 27.4 30.5 52.0 137.0 140.5 486.6
31/08 12:10 21.2 69 12.79 15.3 26 35 1027.2 0 28.0 31.0 53.4 140.6 144.8 501.6
31/08 12:00 21.5 68 12.82 15.3 30 39 1027.2 0 28.1 31.0 53.3 140.4 144.7 501.2
31/08 11:50 21.8 66 12.66 15.2 24 33 1027.2 0 27.7 30.6 52.4 138.1 141.9 491.6
31/08 11:40 21 69 12.64 15.1 22 30 1027.2 0 27.7 30.8 52.9 139.3 143.1 495.7
31/08 11:30 21.9 64 12.35 14.8 24 32 1027.3 0 27.1 30.0 51.1 134.5 137.5 476.3
31/08 11:20 23.5 55 11.63 13.9 26 33 1027.3 0 25.4 28.3 47.2 124.1 125.3 433.8
31/08 11:10 23.1 57 11.78 14.1 24 32 1027.5 0 25.8 28.7 48.0 126.4 128.0 442.9
31/08 11:00 23 56 11.51 13.8 26 32 1027.7 0 25.2 28.3 47.0 123.7 124.6 431.3
31/08 10:50 23 56 11.51 13.8 26 35 1027.8 0 25.2 28.3 47.0 123.7 124.6 431.3
31/08 10:40 22.6 61 12.25 14.7 26 35 1027.8 0 26.8 29.6 50.2 132.3 135.0 467.6
31/08 10:30 22 59 11.45 13.6 28 37 1028 0 25.2 28.5 47.4 124.7 125.5 434.1
31/08 10:20 21.8 60 11.51 13.7 28 35 1028.1 0 25.3 28.7 47.8 125.6 126.6 438.0
31/08 10:10 22.6 64 12.86 15.4 28 33 1028 0 28.1 30.7 52.8 139.0 143.3 496.3
31/08 10:00 21.6 67 12.71 15.2 30 37 1028 0 27.8 30.8 52.8 139.1 143.1 495.5
31/08 09:50 22.5 67 13.38 16.1 30 39 1028.1 0 29.2 31.6 55.0 144.9 150.6 521.9
31/08 09:40 21.5 67 12.63 15.1 30 35 1028.1 0 27.7 30.7 52.5 138.4 142.2 492.4
31/08 09:30 22.4 65 12.91 15.5 28 35 1028 0 28.2 30.8 53.1 139.9 144.3 500.0
31/08 09:20 22.3 62 12.24 14.7 28 37 1027.9 0 26.8 29.7 50.4 132.7 135.4 468.9
31/08 09:10 21.3 64 11.93 14.2 28 35 1028 0 26.2 29.6 49.8 131.0 133.0 460.4
31/08 09:00 21 70 12.82 15.3 30 39 1028 0 28.1 31.2 53.7 141.4 145.7 504.7
31/08 08:50 21.2 66 12.23 14.6 28 35 1028 0.4 26.9 30.1 51.1 134.4 137.2 475.1
31/08 08:40 21.2 66 12.23 14.6 28 35 1027.9 0.4 26.9 30.1 51.1 134.4 137.2 475.1
31/08 08:30 21.1 69 12.71 15.2 32 39 1027.9 0.4 27.9 30.9 53.1 139.9 144.0 498.7
31/08 08:20 20.8 66 11.95 14.2 33 43 1027.8 0.4 26.3 29.8 50.2 132.0 134.1 464.2
31/08 08:10 20.8 70 12.67 15.1 30 41 1027.6 0.4 27.8 31.0 53.2 140.0 144.0 498.6
31/08 08:00 20.7 68 12.24 14.6 28 35 1027.5 0.4 26.9 30.3 51.4 135.3 138.2 478.5
31/08 07:50 21 67 12.27 14.6 28 35 1027.4 0.4 27.0 30.2 51.3 135.1 138.1 478.0
31/08 07:40 21.5 65 12.26 14.6 28 35 1027.2 0.4 26.9 30.0 51.0 134.2 137.0 474.4
31/08 07:30 21.3 65 12.11 14.5 26 35 1027.1 0.4 26.6 29.8 50.5 132.8 135.3 468.5
31/08 07:20 20.5 68 12.1 14.4 28 33 1027 0.4 26.6 30.1 50.9 134.1 136.6 472.8
31/08 07:10 20.2 67 11.71 13.9 30 37 1027 0.4 25.8 29.5 49.5 130.3 131.8 456.1
31/08 07:00 20.5 65 11.56 13.7 26 35 1026.9 0.4 25.5 29.2 48.7 128.1 129.3 447.2
31/08 06:50 20.4 67 11.85 14.1 28 35 1026.8 0.4 26.1 29.7 50.0 131.5 133.4 461.5
31/08 06:40 20.3 70 12.31 14.7 26 32 1026.8 0.4 27.1 30.5 51.9 136.7 139.8 484.0
31/08 06:30 20.2 68 11.89 14.1 28 35 1026.7 0.4 26.2 29.8 50.2 132.2 134.2 464.5
31/08 06:20 20 70 12.1 14.4 32 39 1026.6 0.4 26.7 30.2 51.2 134.9 137.5 475.7
31/08 06:10 20.1 73 12.69 15.1 30 37 1026.4 0.4 27.9 31.2 53.7 141.3 145.4 503.6
31/08 06:00 19.9 68 11.68 13.8 30 39 1026.4 0.4 25.8 29.6 49.5 130.4 131.9 456.2
31/08 05:50 19.9 68 11.68 13.8 32 39 1026.2 0.4 25.8 29.5 49.5 130.3 131.8 456.1
31/08 05:40 20.1 70 12.17 14.5 28 35 1026.2 0.4 26.8 30.3 51.5 135.4 138.2 478.3
31/08 05:30 20.2 71 12.41 14.8 28 35 1026.1 0.4 27.3 30.7 52.4 138.0 141.3 489.2
31/08 05:20 19.9 70 12.03 14.3 28 39 1026 0.4 26.5 30.1 51.0 134.2 136.6 472.7
31/08 05:10 20 69 11.92 14.1 28 35 1026 0.4 26.3 29.9 50.5 132.8 134.9 466.9
31/08 05:00 19.9 69 11.85 14 26 35 1025.9 0.4 26.1 29.8 50.2 132.2 134.1 464.1
31/08 04:50 19.8 67 11.44 13.5 24 33 1025.8 0.4 25.3 29.2 48.6 127.8 128.7 445.2
31/08 04:40 19.8 66 11.27 13.3 26 35 1025.7 0.4 24.9 28.9 47.9 125.9 126.4 437.1
31/08 04:30 19.9 69 11.85 14 26 33 1025.8 0.4 26.1 29.8 50.2 132.2 134.1 464.1
31/08 04:20 19.7 67 11.38 13.4 28 37 1025.7 0.4 25.2 29.1 48.4 127.3 128.1 442.9
31/08 04:10 19.9 69 11.85 14 28 35 1025.7 0.4 26.1 29.8 50.2 132.2 134.1 464.0
31/08 04:00 19.8 70 11.96 14.2 28 35 1025.7 0.4 26.4 30.0 50.7 133.6 135.8 469.9
31/08 03:50 19.9 69 11.85 14 28 35 1025.8 0.4 26.1 29.8 50.2 132.2 134.1 464.1
31/08 03:40 19.8 67 11.44 13.5 30 37 1025.9 0.4 25.3 29.2 48.6 127.8 128.7 445.2
31/08 03:30 19.9 67 11.51 13.6 30 37 1025.9 0.4 25.4 29.3 48.8 128.4 129.5 448.0
31/08 03:20 20 70 12.1 14.4 30 37 1026 0.4 26.7 30.2 51.2 134.8 137.4 475.5
31/08 03:10 20 67 11.58 13.7 30 35 1026.1 0.4 25.6 29.3 49.1 129.1 130.3 450.8
31/08 03:00 20.1 69 11.99 14.2 32 39 1026.1 0.4 26.4 30.0 50.7 133.4 135.7 469.7
31/08 02:50 20.1 68 11.82 14 30 35 1026 0.4 26.1 29.7 50.0 131.5 133.4 461.5
31/08 02:40 20.2 70 12.24 14.6 32 39 1026 0.4 26.9 30.4 51.7 136.0 139.0 481.0
31/08 02:30 20.2 71 12.41 14.8 32 39 1026.1 0.4 27.3 30.7 52.4 138.0 141.3 489.2
31/08 02:20 20.2 72 12.59 15 26 35 1026.1 0.4 27.7 31.0 53.2 140.0 143.8 498.0
31/08 02:10 20.3 70 12.31 14.7 32 39 1026.2 0.4 27.1 30.5 51.9 136.7 139.8 483.8
31/08 02:00 20.1 69 11.99 14.2 32 41 1026.3 0.4 26.4 30.0 50.7 133.4 135.7 469.7
31/08 01:50 20.1 69 11.99 14.2 35 41 1026.2 0.4 26.4 30.0 50.7 133.4 135.7 469.7
31/08 01:40 20.2 71 12.41 14.8 30 37 1026.2 0.4 27.3 30.7 52.4 138.0 141.3 489.3
31/08 01:30 20.2 68 11.89 14.1 32 39 1026.4 0.4 26.2 29.8 50.2 132.2 134.2 464.4
31/08 01:20 20.1 67 11.65 13.8 32 41 1026.4 0.4 25.7 29.4 49.3 129.7 131.1 453.6
31/08 01:10 20.2 66 11.54 13.6 35 43 1026.4 0.4 25.5 29.2 48.8 128.3 129.5 447.8
31/08 01:00 20.2 67 11.71 13.9 35 43 1026.4 0.4 25.8 29.5 49.5 130.2 131.8 455.9
31/08 00:50 20.1 64 11.12 13.1 33 41 1026.5 0.4 24.6 28.6 47.1 123.9 124.0 428.8
31/08 00:40 20.2 67 11.71 13.9 33 43 1026.6 0.4 25.8 29.5 49.5 130.2 131.8 455.9
31/08 00:30 20.1 64 11.12 13.1 35 44 1026.8 0.4 24.6 28.6 47.1 124.0 124.0 428.8
31/08 00:20 20.3 67 11.78 14 35 44 1026.9 0.4 26.0 29.6 49.7 130.9 132.6 458.8
31/08 00:10 20.5 68 12.1 14.4 33 44 1027 0.4 26.6 30.1 50.9 134.1 136.6 472.8
31/08 00:00 20.4 66 11.67 13.8 35 44 1027.1 0.4 25.7 29.4 49.2 129.5 130.9 453.0
30/08 23:50 20.3 67 11.78 14 35 44 1027.1 0.4 26.0 29.6 49.7 130.9 132.6 458.8

Last Refresh: 31-Aug-2026 16:05:26

Bureau of Meteorology